sensor_id;sensor_type;location;lat;lon;timestamp;P1;durP1;ratioP1;P2;durP2;ratioP2
56045;SDS011;41913;51.030;3.706;2023-10-08T00:00:46;4.97;;;2.47;;
56045;SDS011;41913;51.030;3.706;2023-10-08T00:03:19;4.38;;;2.38;;
56045;SDS011;41913;51.030;3.706;2023-10-08T00:05:47;3.03;;;2.60;;
56045;SDS011;41913;51.030;3.706;2023-10-08T00:08:16;3.10;;;2.80;;
56045;SDS011;41913;51.030;3.706;2023-10-08T00:10:42;4.00;;;2.53;;
56045;SDS011;41913;51.030;3.706;2023-10-08T00:13:13;4.55;;;2.30;;
56045;SDS011;41913;51.030;3.706;2023-10-08T00:15:43;8.23;;;3.10;;
56045;SDS011;41913;51.030;3.706;2023-10-08T00:18:22;2.38;;;2.13;;
56045;SDS011;41913;51.030;3.706;2023-10-08T00:20:50;5.07;;;2.53;;
56045;SDS011;41913;51.030;3.706;2023-10-08T00:23:43;3.33;;;2.65;;
56045;SDS011;41913;51.030;3.706;2023-10-08T00:26:17;3.83;;;2.70;;
56045;SDS011;41913;51.030;3.706;2023-10-08T00:28:46;3.10;;;2.50;;
56045;SDS011;41913;51.030;3.706;2023-10-08T00:31:13;3.85;;;2.80;;
56045;SDS011;41913;51.030;3.706;2023-10-08T00:33:42;2.72;;;2.40;;
56045;SDS011;41913;51.030;3.706;2023-10-08T00:36:10;2.83;;;2.35;;
56045;SDS011;41913;51.030;3.706;2023-10-08T00:38:48;3.72;;;2.78;;
56045;SDS011;41913;51.030;3.706;2023-10-08T00:41:25;2.65;;;2.15;;
56045;SDS011;41913;51.030;3.706;2023-10-08T00:43:56;6.60;;;3.15;;
56045;SDS011;41913;51.030;3.706;2023-10-08T00:46:24;5.03;;;2.60;;
56045;SDS011;41913;51.030;3.706;2023-10-08T00:48:56;3.28;;;2.70;;
56045;SDS011;41913;51.030;3.706;2023-10-08T00:51:24;2.78;;;2.55;;
56045;SDS011;41913;51.030;3.706;2023-10-08T00:53:57;4.00;;;2.30;;
56045;SDS011;41913;51.030;3.706;2023-10-08T00:56:32;4.85;;;2.58;;
56045;SDS011;41913;51.030;3.706;2023-10-08T00:59:22;6.72;;;2.85;;
56045;SDS011;41913;51.030;3.706;2023-10-08T01:01:49;4.63;;;2.70;;
56045;SDS011;41913;51.030;3.706;2023-10-08T01:04:20;4.68;;;2.78;;
56045;SDS011;41913;51.030;3.706;2023-10-08T01:06:54;4.75;;;2.92;;
56045;SDS011;41913;51.030;3.706;2023-10-08T01:09:28;6.75;;;2.75;;
56045;SDS011;41913;51.030;3.706;2023-10-08T01:12:10;9.38;;;2.75;;
56045;SDS011;41913;51.030;3.706;2023-10-08T01:14:52;8.75;;;3.08;;
56045;SDS011;41913;51.030;3.706;2023-10-08T01:17:19;5.32;;;2.72;;
56045;SDS011;41913;51.030;3.706;2023-10-08T01:19:49;3.55;;;2.10;;
56045;SDS011;41913;51.030;3.706;2023-10-08T01:22:20;6.30;;;2.65;;
56045;SDS011;41913;51.030;3.706;2023-10-08T01:24:50;3.05;;;2.58;;
56045;SDS011;41913;51.030;3.706;2023-10-08T01:27:17;4.65;;;2.53;;
56045;SDS011;41913;51.030;3.706;2023-10-08T01:29:51;4.65;;;2.55;;
56045;SDS011;41913;51.030;3.706;2023-10-08T01:32:17;7.22;;;3.28;;
56045;SDS011;41913;51.030;3.706;2023-10-08T01:34:44;2.83;;;2.50;;
56045;SDS011;41913;51.030;3.706;2023-10-08T01:37:14;2.83;;;2.53;;
56045;SDS011;41913;51.030;3.706;2023-10-08T01:39:45;3.83;;;2.42;;
56045;SDS011;41913;51.030;3.706;2023-10-08T01:42:13;3.33;;;2.50;;
56045;SDS011;41913;51.030;3.706;2023-10-08T01:44:46;2.70;;;2.47;;
56045;SDS011;41913;51.030;3.706;2023-10-08T01:47:16;3.53;;;2.92;;
56045;SDS011;41913;51.030;3.706;2023-10-08T01:49:42;2.10;;;2.00;;
56045;SDS011;41913;51.030;3.706;2023-10-08T01:52:10;3.28;;;2.97;;
56045;SDS011;41913;51.030;3.706;2023-10-08T01:54:45;5.22;;;2.45;;
56045;SDS011;41913;51.030;3.706;2023-10-08T01:57:11;4.85;;;2.80;;
56045;SDS011;41913;51.030;3.706;2023-10-08T01:59:37;4.28;;;2.70;;
56045;SDS011;41913;51.030;3.706;2023-10-08T02:02:04;3.97;;;2.38;;
56045;SDS011;41913;51.030;3.706;2023-10-08T02:04:33;3.50;;;2.63;;
56045;SDS011;41913;51.030;3.706;2023-10-08T02:07:02;6.88;;;3.55;;
56045;SDS011;41913;51.030;3.706;2023-10-08T02:09:29;2.78;;;2.50;;
56045;SDS011;41913;51.030;3.706;2023-10-08T02:11:55;3.28;;;2.97;;
56045;SDS011;41913;51.030;3.706;2023-10-08T02:14:22;3.10;;;2.80;;
56045;SDS011;41913;51.030;3.706;2023-10-08T02:16:48;2.95;;;2.65;;
56045;SDS011;41913;51.030;3.706;2023-10-08T02:19:18;5.32;;;2.88;;
56045;SDS011;41913;51.030;3.706;2023-10-08T02:21:53;4.57;;;2.90;;
56045;SDS011;41913;51.030;3.706;2023-10-08T02:24:19;3.10;;;2.83;;
56045;SDS011;41913;51.030;3.706;2023-10-08T02:26:50;3.42;;;2.55;;
56045;SDS011;41913;51.030;3.706;2023-10-08T02:29:25;4.32;;;2.92;;
56045;SDS011;41913;51.030;3.706;2023-10-08T02:34:19;3.22;;;2.47;;
56045;SDS011;41913;51.030;3.706;2023-10-08T02:36:45;2.88;;;2.67;;
56045;SDS011;41913;51.030;3.706;2023-10-08T02:39:13;2.72;;;2.53;;
56045;SDS011;41913;51.030;3.706;2023-10-08T02:41:46;3.03;;;2.53;;
56045;SDS011;41913;51.030;3.706;2023-10-08T02:44:13;5.82;;;2.95;;
56045;SDS011;41913;51.030;3.706;2023-10-08T02:46:43;3.13;;;2.47;;
56045;SDS011;41913;51.030;3.706;2023-10-08T02:49:13;3.28;;;2.97;;
56045;SDS011;41913;51.030;3.706;2023-10-08T02:51:45;3.38;;;2.95;;
56045;SDS011;41913;51.030;3.706;2023-10-08T02:54:12;4.07;;;2.63;;
56045;SDS011;41913;51.030;3.706;2023-10-08T02:56:43;3.40;;;3.10;;
56045;SDS011;41913;51.030;3.706;2023-10-08T02:59:17;3.45;;;3.15;;
56045;SDS011;41913;51.030;3.706;2023-10-08T03:01:43;5.78;;;3.10;;
56045;SDS011;41913;51.030;3.706;2023-10-08T03:04:10;3.13;;;2.90;;
56045;SDS011;41913;51.030;3.706;2023-10-08T03:06:47;3.15;;;2.55;;
56045;SDS011;41913;51.030;3.706;2023-10-08T03:09:18;4.38;;;3.25;;
56045;SDS011;41913;51.030;3.706;2023-10-08T03:11:57;3.80;;;2.88;;
56045;SDS011;41913;51.030;3.706;2023-10-08T03:14:23;3.90;;;2.72;;
56045;SDS011;41913;51.030;3.706;2023-10-08T03:16:52;3.20;;;2.90;;
56045;SDS011;41913;51.030;3.706;2023-10-08T03:19:21;2.75;;;2.47;;
56045;SDS011;41913;51.030;3.706;2023-10-08T03:21:48;3.97;;;2.92;;
56045;SDS011;41913;51.030;3.706;2023-10-08T03:24:16;3.67;;;3.00;;
56045;SDS011;41913;51.030;3.706;2023-10-08T03:26:58;4.35;;;3.30;;
56045;SDS011;41913;51.030;3.706;2023-10-08T03:29:48;3.63;;;2.78;;
56045;SDS011;41913;51.030;3.706;2023-10-08T03:32:14;2.55;;;2.35;;
56045;SDS011;41913;51.030;3.706;2023-10-08T03:34:47;3.63;;;2.88;;
56045;SDS011;41913;51.030;3.706;2023-10-08T03:37:21;6.60;;;3.03;;
56045;SDS011;41913;51.030;3.706;2023-10-08T03:39:55;4.65;;;2.75;;
56045;SDS011;41913;51.030;3.706;2023-10-08T03:42:40;4.68;;;3.10;;
56045;SDS011;41913;51.030;3.706;2023-10-08T03:45:06;2.72;;;2.53;;
56045;SDS011;41913;51.030;3.706;2023-10-08T03:47:37;3.40;;;2.78;;
56045;SDS011;41913;51.030;3.706;2023-10-08T03:50:07;4.28;;;3.60;;
56045;SDS011;41913;51.030;3.706;2023-10-08T03:52:35;5.45;;;2.67;;
56045;SDS011;41913;51.030;3.706;2023-10-08T03:55:04;3.55;;;2.83;;
56045;SDS011;41913;51.030;3.706;2023-10-08T03:57:54;5.38;;;2.97;;
56045;SDS011;41913;51.030;3.706;2023-10-08T04:00:23;4.68;;;3.15;;
56045;SDS011;41913;51.030;3.706;2023-10-08T04:02:56;4.47;;;2.97;;
56045;SDS011;41913;51.030;3.706;2023-10-08T04:05:26;6.20;;;2.88;;
56045;SDS011;41913;51.030;3.706;2023-10-08T04:08:11;7.00;;;3.15;;
56045;SDS011;41913;51.030;3.706;2023-10-08T04:10:46;3.60;;;2.50;;
56045;SDS011;41913;51.030;3.706;2023-10-08T04:13:12;3.22;;;2.78;;
56045;SDS011;41913;51.030;3.706;2023-10-08T04:15:41;3.63;;;2.78;;
56045;SDS011;41913;51.030;3.706;2023-10-08T04:18:08;3.33;;;3.03;;
56045;SDS011;41913;51.030;3.706;2023-10-08T04:20:34;4.10;;;2.88;;
56045;SDS011;41913;51.030;3.706;2023-10-08T04:23:03;4.10;;;3.15;;
56045;SDS011;41913;51.030;3.706;2023-10-08T04:25:31;3.92;;;3.25;;
56045;SDS011;41913;51.030;3.706;2023-10-08T04:27:58;4.38;;;3.10;;
56045;SDS011;41913;51.030;3.706;2023-10-08T04:30:34;4.65;;;3.13;;
56045;SDS011;41913;51.030;3.706;2023-10-08T04:33:03;4.90;;;3.28;;
56045;SDS011;41913;51.030;3.706;2023-10-08T04:35:43;5.57;;;2.72;;
56045;SDS011;41913;51.030;3.706;2023-10-08T04:38:22;4.32;;;2.90;;
56045;SDS011;41913;51.030;3.706;2023-10-08T04:40:54;5.25;;;2.72;;
56045;SDS011;41913;51.030;3.706;2023-10-08T04:43:21;2.65;;;2.38;;
56045;SDS011;41913;51.030;3.706;2023-10-08T04:45:53;4.85;;;3.00;;
56045;SDS011;41913;51.030;3.706;2023-10-08T04:48:22;5.72;;;3.10;;
56045;SDS011;41913;51.030;3.706;2023-10-08T04:50:54;3.00;;;2.53;;
56045;SDS011;41913;51.030;3.706;2023-10-08T04:53:27;4.70;;;3.03;;
56045;SDS011;41913;51.030;3.706;2023-10-08T04:56:02;3.92;;;2.83;;
56045;SDS011;41913;51.030;3.706;2023-10-08T04:58:38;6.10;;;2.50;;
56045;SDS011;41913;51.030;3.706;2023-10-08T05:01:12;4.35;;;3.05;;
56045;SDS011;41913;51.030;3.706;2023-10-08T05:04:07;4.05;;;2.75;;
56045;SDS011;41913;51.030;3.706;2023-10-08T05:06:48;4.18;;;2.88;;
56045;SDS011;41913;51.030;3.706;2023-10-08T05:09:26;4.80;;;2.97;;
56045;SDS011;41913;51.030;3.706;2023-10-08T05:12:06;5.60;;;3.30;;
56045;SDS011;41913;51.030;3.706;2023-10-08T05:15:02;4.07;;;2.38;;
56045;SDS011;41913;51.030;3.706;2023-10-08T05:17:38;2.83;;;2.60;;
56045;SDS011;41913;51.030;3.706;2023-10-08T05:20:20;3.00;;;2.63;;
56045;SDS011;41913;51.030;3.706;2023-10-08T05:22:55;4.22;;;2.83;;
56045;SDS011;41913;51.030;3.706;2023-10-08T05:25:31;3.25;;;2.42;;
56045;SDS011;41913;51.030;3.706;2023-10-08T05:28:22;4.97;;;2.85;;
56045;SDS011;41913;51.030;3.706;2023-10-08T05:30:52;3.58;;;3.22;;
56045;SDS011;41913;51.030;3.706;2023-10-08T05:33:37;3.53;;;2.72;;
56045;SDS011;41913;51.030;3.706;2023-10-08T05:36:34;4.65;;;3.28;;
56045;SDS011;41913;51.030;3.706;2023-10-08T05:39:19;3.50;;;2.47;;
56045;SDS011;41913;51.030;3.706;2023-10-08T05:42:03;4.55;;;2.72;;
56045;SDS011;41913;51.030;3.706;2023-10-08T05:44:48;3.25;;;2.95;;
56045;SDS011;41913;51.030;3.706;2023-10-08T05:47:32;2.70;;;2.50;;
56045;SDS011;41913;51.030;3.706;2023-10-08T05:50:01;3.35;;;2.60;;
56045;SDS011;41913;51.030;3.706;2023-10-08T05:53:03;4.53;;;2.80;;
56045;SDS011;41913;51.030;3.706;2023-10-08T05:55:40;3.70;;;2.83;;
56045;SDS011;41913;51.030;3.706;2023-10-08T05:58:13;4.80;;;2.85;;
56045;SDS011;41913;51.030;3.706;2023-10-08T06:00:42;2.90;;;2.67;;
56045;SDS011;41913;51.030;3.706;2023-10-08T06:03:15;5.25;;;2.92;;
56045;SDS011;41913;51.030;3.706;2023-10-08T06:06:05;2.35;;;2.15;;
56045;SDS011;41913;51.030;3.706;2023-10-08T06:08:48;4.10;;;2.85;;
56045;SDS011;41913;51.030;3.706;2023-10-08T06:11:18;5.00;;;3.30;;
56045;SDS011;41913;51.030;3.706;2023-10-08T06:14:06;7.70;;;2.78;;
56045;SDS011;41913;51.030;3.706;2023-10-08T06:16:41;3.97;;;2.10;;
56045;SDS011;41913;51.030;3.706;2023-10-08T06:19:12;5.10;;;2.78;;
56045;SDS011;41913;51.030;3.706;2023-10-08T06:21:40;5.10;;;2.35;;
56045;SDS011;41913;51.030;3.706;2023-10-08T06:24:09;3.55;;;2.83;;
56045;SDS011;41913;51.030;3.706;2023-10-08T06:26:39;3.42;;;2.95;;
56045;SDS011;41913;51.030;3.706;2023-10-08T06:29:11;3.10;;;2.58;;
56045;SDS011;41913;51.030;3.706;2023-10-08T06:31:56;3.35;;;2.50;;
56045;SDS011;41913;51.030;3.706;2023-10-08T06:34:27;2.80;;;2.60;;
56045;SDS011;41913;51.030;3.706;2023-10-08T06:36:54;2.90;;;2.70;;
56045;SDS011;41913;51.030;3.706;2023-10-08T06:39:23;3.20;;;2.88;;
56045;SDS011;41913;51.030;3.706;2023-10-08T06:41:59;3.20;;;2.95;;
56045;SDS011;41913;51.030;3.706;2023-10-08T06:44:27;4.90;;;3.05;;
56045;SDS011;41913;51.030;3.706;2023-10-08T06:46:53;3.22;;;2.80;;
56045;SDS011;41913;51.030;3.706;2023-10-08T06:49:20;5.57;;;2.75;;
56045;SDS011;41913;51.030;3.706;2023-10-08T06:51:49;6.75;;;3.53;;
56045;SDS011;41913;51.030;3.706;2023-10-08T06:54:16;6.07;;;2.67;;
56045;SDS011;41913;51.030;3.706;2023-10-08T06:56:43;4.43;;;2.55;;
56045;SDS011;41913;51.030;3.706;2023-10-08T06:59:17;2.50;;;2.30;;
56045;SDS011;41913;51.030;3.706;2023-10-08T07:01:43;3.45;;;3.00;;
56045;SDS011;41913;51.030;3.706;2023-10-08T07:04:12;4.25;;;3.22;;
56045;SDS011;41913;51.030;3.706;2023-10-08T07:06:39;2.63;;;2.42;;
56045;SDS011;41913;51.030;3.706;2023-10-08T07:09:06;4.03;;;2.95;;
56045;SDS011;41913;51.030;3.706;2023-10-08T07:11:48;2.88;;;2.15;;
56045;SDS011;41913;51.030;3.706;2023-10-08T07:14:20;3.60;;;2.45;;
56045;SDS011;41913;51.030;3.706;2023-10-08T07:16:48;3.65;;;2.70;;
56045;SDS011;41913;51.030;3.706;2023-10-08T07:19:18;2.75;;;2.45;;
56045;SDS011;41913;51.030;3.706;2023-10-08T07:21:45;3.70;;;3.20;;
56045;SDS011;41913;51.030;3.706;2023-10-08T07:24:12;2.50;;;2.30;;
56045;SDS011;41913;51.030;3.706;2023-10-08T07:26:42;3.58;;;2.88;;
56045;SDS011;41913;51.030;3.706;2023-10-08T07:29:15;4.32;;;2.97;;
56045;SDS011;41913;51.030;3.706;2023-10-08T07:31:42;5.72;;;3.45;;
56045;SDS011;41913;51.030;3.706;2023-10-08T07:34:17;3.88;;;2.78;;
56045;SDS011;41913;51.030;3.706;2023-10-08T07:36:50;2.92;;;2.63;;
56045;SDS011;41913;51.030;3.706;2023-10-08T07:39:18;6.22;;;3.50;;
56045;SDS011;41913;51.030;3.706;2023-10-08T07:41:57;8.13;;;2.42;;
56045;SDS011;41913;51.030;3.706;2023-10-08T07:44:25;4.18;;;3.05;;
56045;SDS011;41913;51.030;3.706;2023-10-08T07:46:55;8.38;;;3.78;;
56045;SDS011;41913;51.030;3.706;2023-10-08T07:49:22;5.10;;;3.30;;
56045;SDS011;41913;51.030;3.706;2023-10-08T07:51:49;3.13;;;2.78;;
56045;SDS011;41913;51.030;3.706;2023-10-08T07:54:21;3.60;;;3.35;;
56045;SDS011;41913;51.030;3.706;2023-10-08T07:56:49;3.70;;;2.95;;
56045;SDS011;41913;51.030;3.706;2023-10-08T07:59:16;4.97;;;3.60;;
56045;SDS011;41913;51.030;3.706;2023-10-08T08:01:43;3.22;;;2.85;;
56045;SDS011;41913;51.030;3.706;2023-10-08T08:04:12;5.43;;;2.92;;
56045;SDS011;41913;51.030;3.706;2023-10-08T08:06:50;3.97;;;3.58;;
56045;SDS011;41913;51.030;3.706;2023-10-08T08:09:18;6.13;;;3.45;;
56045;SDS011;41913;51.030;3.706;2023-10-08T08:11:48;5.30;;;3.70;;
56045;SDS011;41913;51.030;3.706;2023-10-08T08:14:15;3.40;;;3.10;;
56045;SDS011;41913;51.030;3.706;2023-10-08T08:16:50;4.30;;;3.50;;
56045;SDS011;41913;51.030;3.706;2023-10-08T08:19:16;4.03;;;2.95;;
56045;SDS011;41913;51.030;3.706;2023-10-08T08:21:43;4.22;;;3.63;;
56045;SDS011;41913;51.030;3.706;2023-10-08T08:24:13;7.57;;;3.55;;
56045;SDS011;41913;51.030;3.706;2023-10-08T08:26:46;5.40;;;3.17;;
56045;SDS011;41913;51.030;3.706;2023-10-08T08:29:36;4.35;;;2.72;;
56045;SDS011;41913;51.030;3.706;2023-10-08T08:32:12;6.32;;;3.30;;
56045;SDS011;41913;51.030;3.706;2023-10-08T08:34:43;7.32;;;3.42;;
56045;SDS011;41913;51.030;3.706;2023-10-08T08:37:11;3.67;;;2.80;;
56045;SDS011;41913;51.030;3.706;2023-10-08T08:39:37;4.65;;;3.42;;
56045;SDS011;41913;51.030;3.706;2023-10-08T08:42:04;5.03;;;3.53;;
56045;SDS011;41913;51.030;3.706;2023-10-08T08:44:35;11.43;;;3.45;;
56045;SDS011;41913;51.030;3.706;2023-10-08T08:47:09;13.27;;;4.45;;
56045;SDS011;41913;51.030;3.706;2023-10-08T08:49:39;16.33;;;4.43;;
56045;SDS011;41913;51.030;3.706;2023-10-08T08:52:07;18.80;;;4.95;;
56045;SDS011;41913;51.030;3.706;2023-10-08T08:54:36;10.10;;;4.72;;
56045;SDS011;41913;51.030;3.706;2023-10-08T08:57:02;24.48;;;4.55;;
56045;SDS011;41913;51.030;3.706;2023-10-08T08:59:35;34.63;;;6.03;;
56045;SDS011;41913;51.030;3.706;2023-10-08T09:02:01;15.73;;;4.80;;
56045;SDS011;41913;51.030;3.706;2023-10-08T09:04:32;27.30;;;6.13;;
56045;SDS011;41913;51.030;3.706;2023-10-08T09:06:58;10.85;;;4.65;;
56045;SDS011;41913;51.030;3.706;2023-10-08T09:09:33;7.45;;;4.95;;
56045;SDS011;41913;51.030;3.706;2023-10-08T09:12:03;12.77;;;4.57;;
56045;SDS011;41913;51.030;3.706;2023-10-08T09:14:30;16.25;;;5.15;;
56045;SDS011;41913;51.030;3.706;2023-10-08T09:17:00;11.05;;;5.32;;
56045;SDS011;41913;51.030;3.706;2023-10-08T09:19:29;12.52;;;5.70;;
56045;SDS011;41913;51.030;3.706;2023-10-08T09:22:07;10.10;;;5.35;;
56045;SDS011;41913;51.030;3.706;2023-10-08T09:24:36;13.73;;;5.47;;
56045;SDS011;41913;51.030;3.706;2023-10-08T09:27:09;10.80;;;5.28;;
56045;SDS011;41913;51.030;3.706;2023-10-08T09:29:43;13.25;;;5.82;;
56045;SDS011;41913;51.030;3.706;2023-10-08T09:32:12;10.50;;;4.82;;
56045;SDS011;41913;51.030;3.706;2023-10-08T09:34:48;13.70;;;5.32;;
56045;SDS011;41913;51.030;3.706;2023-10-08T09:37:16;7.72;;;4.35;;
56045;SDS011;41913;51.030;3.706;2023-10-08T09:39:42;10.93;;;4.82;;
56045;SDS011;41913;51.030;3.706;2023-10-08T09:42:11;10.57;;;4.60;;
56045;SDS011;41913;51.030;3.706;2023-10-08T09:44:39;13.20;;;4.90;;
56045;SDS011;41913;51.030;3.706;2023-10-08T09:47:05;14.30;;;5.85;;
56045;SDS011;41913;51.030;3.706;2023-10-08T09:49:38;13.63;;;5.30;;
56045;SDS011;41913;51.030;3.706;2023-10-08T09:52:08;13.75;;;5.70;;
56045;SDS011;41913;51.030;3.706;2023-10-08T09:57:19;10.60;;;5.22;;
56045;SDS011;41913;51.030;3.706;2023-10-08T09:59:47;21.05;;;5.72;;
56045;SDS011;41913;51.030;3.706;2023-10-08T10:02:14;15.13;;;4.38;;
56045;SDS011;41913;51.030;3.706;2023-10-08T10:04:42;12.15;;;5.35;;
56045;SDS011;41913;51.030;3.706;2023-10-08T10:07:10;10.30;;;4.70;;
56045;SDS011;41913;51.030;3.706;2023-10-08T10:09:44;11.98;;;5.25;;
56045;SDS011;41913;51.030;3.706;2023-10-08T10:12:12;9.38;;;4.85;;
56045;SDS011;41913;51.030;3.706;2023-10-08T10:14:44;8.57;;;5.13;;
56045;SDS011;41913;51.030;3.706;2023-10-08T10:17:14;14.20;;;5.15;;
56045;SDS011;41913;51.030;3.706;2023-10-08T10:19:49;7.22;;;4.57;;
56045;SDS011;41913;51.030;3.706;2023-10-08T10:22:29;7.18;;;4.40;;
56045;SDS011;41913;51.030;3.706;2023-10-08T10:24:59;8.88;;;4.05;;
56045;SDS011;41913;51.030;3.706;2023-10-08T10:27:29;14.93;;;5.15;;
56045;SDS011;41913;51.030;3.706;2023-10-08T10:30:02;6.90;;;4.28;;
56045;SDS011;41913;51.030;3.706;2023-10-08T10:32:33;12.80;;;5.00;;
56045;SDS011;41913;51.030;3.706;2023-10-08T10:35:02;8.93;;;4.43;;
56045;SDS011;41913;51.030;3.706;2023-10-08T10:37:31;9.32;;;4.70;;
56045;SDS011;41913;51.030;3.706;2023-10-08T10:40:07;11.20;;;4.72;;
56045;SDS011;41913;51.030;3.706;2023-10-08T10:42:38;9.27;;;5.32;;
56045;SDS011;41913;51.030;3.706;2023-10-08T10:45:15;9.40;;;5.07;;
56045;SDS011;41913;51.030;3.706;2023-10-08T10:48:00;8.98;;;4.50;;
56045;SDS011;41913;51.030;3.706;2023-10-08T10:50:38;11.10;;;5.53;;
56045;SDS011;41913;51.030;3.706;2023-10-08T10:53:14;15.35;;;5.97;;
56045;SDS011;41913;51.030;3.706;2023-10-08T10:55:43;12.55;;;4.88;;
56045;SDS011;41913;51.030;3.706;2023-10-08T10:58:28;9.02;;;5.22;;
56045;SDS011;41913;51.030;3.706;2023-10-08T11:01:05;9.55;;;5.00;;
56045;SDS011;41913;51.030;3.706;2023-10-08T11:03:49;9.50;;;5.47;;
56045;SDS011;41913;51.030;3.706;2023-10-08T11:06:17;10.82;;;5.00;;
56045;SDS011;41913;51.030;3.706;2023-10-08T11:08:56;11.15;;;4.63;;
56045;SDS011;41913;51.030;3.706;2023-10-08T11:11:26;11.15;;;4.93;;
56045;SDS011;41913;51.030;3.706;2023-10-08T11:13:55;11.23;;;4.85;;
56045;SDS011;41913;51.030;3.706;2023-10-08T11:16:25;9.25;;;5.13;;
56045;SDS011;41913;51.030;3.706;2023-10-08T11:18:52;14.63;;;5.07;;
56045;SDS011;41913;51.030;3.706;2023-10-08T11:21:23;15.55;;;5.18;;
56045;SDS011;41913;51.030;3.706;2023-10-08T11:23:51;16.75;;;4.95;;
56045;SDS011;41913;51.030;3.706;2023-10-08T11:26:18;11.27;;;4.47;;
56045;SDS011;41913;51.030;3.706;2023-10-08T11:28:46;8.88;;;4.13;;
56045;SDS011;41913;51.030;3.706;2023-10-08T11:31:16;8.77;;;5.05;;
56045;SDS011;41913;51.030;3.706;2023-10-08T11:33:45;17.75;;;5.57;;
56045;SDS011;41913;51.030;3.706;2023-10-08T11:36:20;9.88;;;5.28;;
56045;SDS011;41913;51.030;3.706;2023-10-08T11:38:54;10.50;;;4.70;;
56045;SDS011;41913;51.030;3.706;2023-10-08T11:41:27;13.23;;;5.07;;
56045;SDS011;41913;51.030;3.706;2023-10-08T11:44:00;8.57;;;5.32;;
56045;SDS011;41913;51.030;3.706;2023-10-08T11:46:30;11.20;;;6.15;;
56045;SDS011;41913;51.030;3.706;2023-10-08T11:49:04;11.38;;;5.32;;
56045;SDS011;41913;51.030;3.706;2023-10-08T11:51:33;10.57;;;5.85;;
56045;SDS011;41913;51.030;3.706;2023-10-08T11:54:00;8.82;;;5.13;;
56045;SDS011;41913;51.030;3.706;2023-10-08T11:56:28;9.70;;;4.97;;
56045;SDS011;41913;51.030;3.706;2023-10-08T11:58:54;12.30;;;5.95;;
56045;SDS011;41913;51.030;3.706;2023-10-08T12:01:24;12.90;;;5.55;;
56045;SDS011;41913;51.030;3.706;2023-10-08T12:03:52;10.20;;;5.13;;
56045;SDS011;41913;51.030;3.706;2023-10-08T12:06:24;7.53;;;5.13;;
56045;SDS011;41913;51.030;3.706;2023-10-08T12:08:54;15.77;;;5.07;;
56045;SDS011;41913;51.030;3.706;2023-10-08T12:11:23;8.73;;;4.85;;
56045;SDS011;41913;51.030;3.706;2023-10-08T12:16:24;10.45;;;5.38;;
56045;SDS011;41913;51.030;3.706;2023-10-08T12:18:54;11.48;;;4.55;;
56045;SDS011;41913;51.030;3.706;2023-10-08T12:21:30;8.95;;;5.63;;
56045;SDS011;41913;51.030;3.706;2023-10-08T12:23:58;10.98;;;4.53;;
56045;SDS011;41913;51.030;3.706;2023-10-08T12:26:26;11.05;;;4.70;;
56045;SDS011;41913;51.030;3.706;2023-10-08T12:28:52;8.05;;;5.30;;
56045;SDS011;41913;51.030;3.706;2023-10-08T12:31:19;5.57;;;4.05;;
56045;SDS011;41913;51.030;3.706;2023-10-08T12:33:52;10.10;;;4.82;;
56045;SDS011;41913;51.030;3.706;2023-10-08T12:36:28;7.50;;;4.35;;
56045;SDS011;41913;51.030;3.706;2023-10-08T12:38:58;12.38;;;5.88;;
56045;SDS011;41913;51.030;3.706;2023-10-08T12:41:25;9.57;;;4.60;;
56045;SDS011;41913;51.030;3.706;2023-10-08T12:43:53;10.32;;;4.60;;
56045;SDS011;41913;51.030;3.706;2023-10-08T12:46:20;12.00;;;5.65;;
56045;SDS011;41913;51.030;3.706;2023-10-08T12:48:50;7.20;;;4.40;;
56045;SDS011;41913;51.030;3.706;2023-10-08T12:51:23;9.93;;;4.60;;
56045;SDS011;41913;51.030;3.706;2023-10-08T12:53:53;9.00;;;5.53;;
56045;SDS011;41913;51.030;3.706;2023-10-08T12:56:32;5.77;;;3.80;;
56045;SDS011;41913;51.030;3.706;2023-10-08T12:59:10;8.32;;;3.70;;
56045;SDS011;41913;51.030;3.706;2023-10-08T13:01:45;10.75;;;4.97;;
56045;SDS011;41913;51.030;3.706;2023-10-08T13:04:16;9.90;;;4.43;;
56045;SDS011;41913;51.030;3.706;2023-10-08T13:06:50;10.45;;;5.07;;
56045;SDS011;41913;51.030;3.706;2023-10-08T13:09:16;9.73;;;4.70;;
56045;SDS011;41913;51.030;3.706;2023-10-08T13:11:42;8.18;;;4.18;;
56045;SDS011;41913;51.030;3.706;2023-10-08T13:14:09;8.52;;;4.05;;
56045;SDS011;41913;51.030;3.706;2023-10-08T13:16:37;11.70;;;4.53;;
56045;SDS011;41913;51.030;3.706;2023-10-08T13:19:03;5.75;;;4.95;;
56045;SDS011;41913;51.030;3.706;2023-10-08T13:21:29;9.48;;;5.18;;
56045;SDS011;41913;51.030;3.706;2023-10-08T13:23:57;7.47;;;3.85;;
56045;SDS011;41913;51.030;3.706;2023-10-08T13:26:25;10.13;;;4.60;;
56045;SDS011;41913;51.030;3.706;2023-10-08T13:28:57;6.75;;;4.30;;
56045;SDS011;41913;51.030;3.706;2023-10-08T13:31:24;9.60;;;5.38;;
56045;SDS011;41913;51.030;3.706;2023-10-08T13:33:51;8.52;;;4.97;;
56045;SDS011;41913;51.030;3.706;2023-10-08T13:36:17;9.85;;;5.38;;
56045;SDS011;41913;51.030;3.706;2023-10-08T13:38:44;7.00;;;4.07;;
56045;SDS011;41913;51.030;3.706;2023-10-08T13:41:11;8.98;;;4.63;;
56045;SDS011;41913;51.030;3.706;2023-10-08T13:43:40;12.75;;;4.35;;
56045;SDS011;41913;51.030;3.706;2023-10-08T13:46:10;6.95;;;4.90;;
56045;SDS011;41913;51.030;3.706;2023-10-08T13:48:40;12.20;;;5.03;;
56045;SDS011;41913;51.030;3.706;2023-10-08T13:51:07;7.25;;;4.80;;
56045;SDS011;41913;51.030;3.706;2023-10-08T13:53:40;9.32;;;5.18;;
56045;SDS011;41913;51.030;3.706;2023-10-08T13:56:10;9.75;;;4.50;;
56045;SDS011;41913;51.030;3.706;2023-10-08T13:58:36;6.40;;;3.53;;
56045;SDS011;41913;51.030;3.706;2023-10-08T14:01:06;5.97;;;4.72;;
56045;SDS011;41913;51.030;3.706;2023-10-08T14:03:50;9.10;;;4.97;;
56045;SDS011;41913;51.030;3.706;2023-10-08T14:06:21;6.78;;;4.40;;
56045;SDS011;41913;51.030;3.706;2023-10-08T14:08:48;10.25;;;5.13;;
56045;SDS011;41913;51.030;3.706;2023-10-08T14:11:18;7.72;;;4.53;;
56045;SDS011;41913;51.030;3.706;2023-10-08T14:13:44;6.72;;;5.40;;
56045;SDS011;41913;51.030;3.706;2023-10-08T14:16:12;9.90;;;5.45;;
56045;SDS011;41913;51.030;3.706;2023-10-08T14:18:40;12.00;;;4.20;;
56045;SDS011;41913;51.030;3.706;2023-10-08T14:21:07;5.85;;;4.03;;
56045;SDS011;41913;51.030;3.706;2023-10-08T14:23:36;7.38;;;4.63;;
56045;SDS011;41913;51.030;3.706;2023-10-08T14:26:12;7.38;;;4.63;;
56045;SDS011;41913;51.030;3.706;2023-10-08T14:28:40;11.48;;;4.75;;
56045;SDS011;41913;51.030;3.706;2023-10-08T14:31:09;9.50;;;5.55;;
56045;SDS011;41913;51.030;3.706;2023-10-08T14:33:42;8.20;;;4.72;;
56045;SDS011;41913;51.030;3.706;2023-10-08T14:36:23;9.25;;;4.82;;
56045;SDS011;41913;51.030;3.706;2023-10-08T14:39:09;5.07;;;4.45;;
56045;SDS011;41913;51.030;3.706;2023-10-08T14:41:53;7.18;;;4.85;;
56045;SDS011;41913;51.030;3.706;2023-10-08T14:44:38;9.90;;;4.97;;
56045;SDS011;41913;51.030;3.706;2023-10-08T14:47:04;11.13;;;4.40;;
56045;SDS011;41913;51.030;3.706;2023-10-08T14:49:30;9.63;;;4.55;;
56045;SDS011;41913;51.030;3.706;2023-10-08T14:51:57;5.78;;;3.97;;
56045;SDS011;41913;51.030;3.706;2023-10-08T14:54:24;5.28;;;3.83;;
56045;SDS011;41913;51.030;3.706;2023-10-08T14:56:51;10.38;;;5.03;;
56045;SDS011;41913;51.030;3.706;2023-10-08T14:59:17;11.82;;;4.85;;
56045;SDS011;41913;51.030;3.706;2023-10-08T15:01:44;10.38;;;5.47;;
56045;SDS011;41913;51.030;3.706;2023-10-08T15:04:12;13.95;;;5.40;;
56045;SDS011;41913;51.030;3.706;2023-10-08T15:06:38;6.25;;;4.38;;
56045;SDS011;41913;51.030;3.706;2023-10-08T15:09:07;9.73;;;5.20;;
56045;SDS011;41913;51.030;3.706;2023-10-08T15:11:34;8.25;;;5.00;;
56045;SDS011;41913;51.030;3.706;2023-10-08T15:14:04;11.85;;;4.70;;
56045;SDS011;41913;51.030;3.706;2023-10-08T15:16:37;8.82;;;4.30;;
56045;SDS011;41913;51.030;3.706;2023-10-08T15:19:06;6.32;;;4.75;;